createdAt,value
2023-10-29T00:00:53.000Z,5.2
2023-10-29T00:04:26.000Z,6.5
2023-10-29T00:07:58.000Z,6
2023-10-29T00:11:31.000Z,7.2
2023-10-29T00:14:17.000Z,5.7
2023-10-29T00:17:50.000Z,3.9
2023-10-29T00:21:23.000Z,4.7
2023-10-29T00:24:56.000Z,5.1
2023-10-29T00:28:29.000Z,6.2
2023-10-29T00:32:01.000Z,5.4
2023-10-29T00:35:34.000Z,6.7
2023-10-29T00:39:07.000Z,4.5
2023-10-29T00:42:40.000Z,5.4
2023-10-29T00:46:12.000Z,4.9
2023-10-29T00:49:45.000Z,6.1
2023-10-29T00:52:30.000Z,4.9
2023-10-29T00:56:03.000Z,5
2023-10-29T00:59:36.000Z,7
2023-10-29T01:03:09.000Z,3.8
2023-10-29T01:06:42.000Z,4.9
2023-10-29T01:10:15.000Z,7
2023-10-29T01:13:48.000Z,4.8
2023-10-29T01:17:21.000Z,4.7
2023-10-29T01:20:53.000Z,3.8
2023-10-29T01:24:26.000Z,5.2
2023-10-29T01:27:59.000Z,5.1
2023-10-29T01:30:44.000Z,6.3
2023-10-29T01:34:17.000Z,6.3
2023-10-29T01:37:50.000Z,6.7
2023-10-29T01:41:23.000Z,4.8
2023-10-29T01:44:56.000Z,6.9
2023-10-29T01:48:28.000Z,6.4
2023-10-29T01:52:01.000Z,6.1
2023-10-29T01:55:34.000Z,6.3
2023-10-29T01:59:07.000Z,4.5
2023-10-29T02:02:39.000Z,6.9
2023-10-29T02:06:12.000Z,4.9
2023-10-29T02:08:57.000Z,4.7
2023-10-29T02:12:30.000Z,6.4
2023-10-29T02:16:03.000Z,5.3
2023-10-29T02:19:36.000Z,7.7
2023-10-29T02:23:08.000Z,4.9
2023-10-29T02:26:41.000Z,6
2023-10-29T02:30:14.000Z,5.4
2023-10-29T02:33:46.000Z,4.1
2023-10-29T02:37:19.000Z,5.9
2023-10-29T02:40:52.000Z,4.1
2023-10-29T02:44:25.000Z,4.2
2023-10-29T02:47:10.000Z,4.8
2023-10-29T02:50:43.000Z,4.4
2023-10-29T02:54:16.000Z,4.3
2023-10-29T02:57:48.000Z,3.5
2023-10-29T03:01:21.000Z,4.8
2023-10-29T03:04:54.000Z,4.8
2023-10-29T03:08:27.000Z,7.1
2023-10-29T03:12:00.000Z,4.5
2023-10-29T03:15:32.000Z,7.2
2023-10-29T03:19:05.000Z,4.4
2023-10-29T03:22:38.000Z,8.1
2023-10-29T03:25:23.000Z,3.6
2023-10-29T03:28:56.000Z,5.2
2023-10-29T03:32:29.000Z,5.8
2023-10-29T03:36:01.000Z,6.1
2023-10-29T03:39:34.000Z,5.7
2023-10-29T03:43:07.000Z,4.3
2023-10-29T03:46:39.000Z,4.9
2023-10-29T03:50:12.000Z,4.6
2023-10-29T03:53:45.000Z,9
2023-10-29T03:57:18.000Z,5
2023-10-29T04:00:50.000Z,5.2
2023-10-29T04:03:36.000Z,5.2
2023-10-29T04:07:09.000Z,5.8
2023-10-29T04:10:42.000Z,3.1
2023-10-29T04:14:14.000Z,6.2
2023-10-29T04:17:47.000Z,5.5
2023-10-29T04:21:20.000Z,4
2023-10-29T04:24:53.000Z,5.2
2023-10-29T04:28:25.000Z,7.1
2023-10-29T04:31:59.000Z,4.5
2023-10-29T04:35:33.000Z,3.4
2023-10-29T04:39:06.000Z,5.3
2023-10-29T04:41:51.000Z,4.4
2023-10-29T04:45:24.000Z,5.1
2023-10-29T04:48:57.000Z,7.2
2023-10-29T04:52:29.000Z,5.2
2023-10-29T04:56:02.000Z,7.2
2023-10-29T04:59:35.000Z,4.3
2023-10-29T05:03:07.000Z,3
2023-10-29T05:06:40.000Z,6
2023-10-29T05:10:13.000Z,5.5
2023-10-29T05:13:46.000Z,4.8
2023-10-29T05:17:18.000Z,6
2023-10-29T05:20:04.000Z,7.1
2023-10-29T05:23:36.000Z,4.5
2023-10-29T05:27:09.000Z,5.3
2023-10-29T05:30:42.000Z,5.6
2023-10-29T05:34:15.000Z,3.9
2023-10-29T05:37:48.000Z,4.1
2023-10-29T05:41:21.000Z,5.5
2023-10-29T05:44:54.000Z,7.3
2023-10-29T05:48:27.000Z,4.3
2023-10-29T05:52:00.000Z,3.3
2023-10-29T05:55:33.000Z,6.3
2023-10-29T05:58:18.000Z,4.7
2023-10-29T06:01:51.000Z,4.7
2023-10-29T06:05:24.000Z,5.3
2023-10-29T06:08:57.000Z,6.2
2023-10-29T06:12:46.000Z,4.7
2023-10-29T06:16:19.000Z,4.9
2023-10-29T06:19:51.000Z,4.4
2023-10-29T06:23:24.000Z,4.2
2023-10-29T06:26:57.000Z,5.2
2023-10-29T06:30:30.000Z,4.3
2023-10-29T06:34:03.000Z,5.9
2023-10-29T06:36:48.000Z,2.2
2023-10-29T06:40:20.000Z,3.2
2023-10-29T06:43:53.000Z,4.7
2023-10-29T06:47:26.000Z,4.3
2023-10-29T06:50:59.000Z,4.9
2023-10-29T06:54:32.000Z,6.3
2023-10-29T06:58:04.000Z,1.9
2023-10-29T07:01:37.000Z,3.9
2023-10-29T07:05:10.000Z,3.1
2023-10-29T07:08:43.000Z,5.5
2023-10-29T07:12:16.000Z,4.5
2023-10-29T07:15:01.000Z,2.3
2023-10-29T07:18:34.000Z,3.2
2023-10-29T07:22:06.000Z,3.4
2023-10-29T07:25:39.000Z,5.6
2023-10-29T07:29:12.000Z,5.6
2023-10-29T07:32:44.000Z,3.1
2023-10-29T07:36:17.000Z,5.5
2023-10-29T07:39:50.000Z,3.9
2023-10-29T07:43:23.000Z,5.6
2023-10-29T07:46:56.000Z,3.6
2023-10-29T07:50:29.000Z,3
2023-10-29T07:53:14.000Z,3.1
2023-10-29T07:56:47.000Z,5.5
2023-10-29T08:00:20.000Z,4.9
2023-10-29T08:03:53.000Z,3.6
2023-10-29T08:07:26.000Z,4.4
2023-10-29T08:10:59.000Z,4.9
2023-10-29T08:14:32.000Z,5.5
2023-10-29T08:18:04.000Z,3.1
2023-10-29T08:21:37.000Z,3.1
2023-10-29T08:25:10.000Z,3.4
2023-10-29T08:28:43.000Z,3.7
2023-10-29T08:31:28.000Z,2
2023-10-29T08:35:01.000Z,2.7
2023-10-29T08:38:34.000Z,3.4
2023-10-29T08:42:07.000Z,5
2023-10-29T08:45:40.000Z,4.3
2023-10-29T08:49:13.000Z,5.4
2023-10-29T08:52:46.000Z,3.9
2023-10-29T08:56:18.000Z,5.5
2023-10-29T08:59:51.000Z,3.9
2023-10-29T09:03:24.000Z,3
2023-10-29T09:06:57.000Z,3.2
2023-10-29T09:09:42.000Z,4
2023-10-29T09:13:14.000Z,2.8
2023-10-29T09:16:47.000Z,3.8
2023-10-29T09:20:20.000Z,3
2023-10-29T09:23:53.000Z,4.1
2023-10-29T09:27:26.000Z,2.5
2023-10-29T09:30:59.000Z,3.8
2023-10-29T09:34:32.000Z,6.1
2023-10-29T09:38:04.000Z,4.2
2023-10-29T09:41:37.000Z,3.8
2023-10-29T09:45:10.000Z,2.7
2023-10-29T09:47:55.000Z,2.5
2023-10-29T09:51:31.000Z,3.1
2023-10-29T09:55:04.000Z,2.8
2023-10-29T09:58:37.000Z,4
2023-10-29T10:02:10.000Z,2.2
2023-10-29T10:05:42.000Z,3.5
2023-10-29T10:09:15.000Z,3.2
2023-10-29T10:12:48.000Z,3.2
2023-10-29T10:16:21.000Z,3.2
2023-10-29T10:19:53.000Z,3
2023-10-29T10:23:26.000Z,5.7
2023-10-29T10:26:12.000Z,3.8
2023-10-29T10:29:44.000Z,5.2
2023-10-29T10:33:18.000Z,5.2
2023-10-29T10:36:50.000Z,2.2
2023-10-29T10:40:23.000Z,3.2
2023-10-29T10:43:59.000Z,2.5
2023-10-29T10:47:32.000Z,2.5
2023-10-29T10:51:05.000Z,3.9
2023-10-29T10:54:38.000Z,2.7
2023-10-29T10:58:11.000Z,3
2023-10-29T11:01:44.000Z,2.2
2023-10-29T11:04:30.000Z,1.9
2023-10-29T11:08:03.000Z,2.1
2023-10-29T11:11:36.000Z,2.1
2023-10-29T11:15:09.000Z,3.3
2023-10-29T11:18:42.000Z,2.7
2023-10-29T11:22:14.000Z,2.9
2023-10-29T11:25:47.000Z,2.8
2023-10-29T11:29:20.000Z,3.2
2023-10-29T11:32:53.000Z,3.1
2023-10-29T11:36:26.000Z,3.1
2023-10-29T11:39:59.000Z,3.5
2023-10-29T11:42:44.000Z,6.6
2023-10-29T11:46:16.000Z,2.3
2023-10-29T11:49:49.000Z,4.2
2023-10-29T11:53:23.000Z,2.2
2023-10-29T11:56:56.000Z,2.2
2023-10-29T12:00:29.000Z,5.4
2023-10-29T12:04:01.000Z,2.5
2023-10-29T12:07:34.000Z,3.2
2023-10-29T12:11:07.000Z,2.4
2023-10-29T12:14:41.000Z,3.2
2023-10-29T12:18:14.000Z,2
2023-10-29T12:21:00.000Z,1.6
2023-10-29T12:24:33.000Z,3.8
2023-10-29T12:28:06.000Z,1.9
2023-10-29T12:31:38.000Z,2.2
2023-10-29T12:35:12.000Z,3.6
2023-10-29T12:38:45.000Z,1.7
2023-10-29T12:42:17.000Z,1.4
2023-10-29T12:45:50.000Z,3.1
2023-10-29T12:49:23.000Z,3
2023-10-29T12:52:55.000Z,2
2023-10-29T12:56:28.000Z,2.8
2023-10-29T12:59:13.000Z,1.3
2023-10-29T13:02:46.000Z,2.4
2023-10-29T13:06:19.000Z,1.5
2023-10-29T13:09:51.000Z,1.4
2023-10-29T13:13:24.000Z,2.3
2023-10-29T13:17:01.000Z,0.6
2023-10-29T13:20:35.000Z,1.1
2023-10-29T13:24:07.000Z,0.6
2023-10-29T13:27:40.000Z,1.2
2023-10-29T13:31:13.000Z,0.5
2023-10-29T13:34:46.000Z,2.5
2023-10-29T13:37:32.000Z,3
2023-10-29T13:41:04.000Z,2.5
2023-10-29T13:44:37.000Z,0.7
2023-10-29T13:48:10.000Z,1.2
2023-10-29T13:51:42.000Z,2.6
2023-10-29T13:55:15.000Z,1.3
2023-10-29T13:58:48.000Z,0.9
2023-10-29T14:02:21.000Z,0.8
2023-10-29T14:05:54.000Z,1.6
2023-10-29T15:51:01.000Z,3.9
2023-10-29T15:54:34.000Z,5.7
2023-10-29T15:58:07.000Z,5.6
2023-10-29T16:01:40.000Z,7.8
2023-10-29T16:05:12.000Z,2.8
2023-10-29T16:08:45.000Z,2.3
2023-10-29T16:12:18.000Z,1.7
2023-10-29T16:15:51.000Z,1.1
2023-10-29T16:19:24.000Z,1.3
2023-10-29T16:22:57.000Z,1.2
2023-10-29T16:26:30.000Z,0.9
2023-10-29T16:29:15.000Z,1.3
2023-10-29T17:54:12.000Z,3.3
2023-10-29T17:57:44.000Z,4.1
2023-10-29T18:01:18.000Z,3.7
2023-10-29T18:04:52.000Z,2.5
2023-10-29T18:08:25.000Z,3.2
2023-10-29T18:11:58.000Z,2.3
2023-10-29T18:15:30.000Z,2.5
2023-10-29T18:19:17.000Z,2.1
2023-10-29T18:22:50.000Z,2.4
2023-10-29T18:26:22.000Z,1.7
2023-10-29T18:29:55.000Z,6.1
2023-10-29T18:33:33.000Z,1.4
2023-10-29T18:37:06.000Z,2
2023-10-29T18:40:38.000Z,1
2023-10-29T18:44:11.000Z,2.5
2023-10-29T18:47:44.000Z,1.3
2023-10-29T18:51:18.000Z,2.6
2023-10-29T18:54:51.000Z,1.3
2023-10-29T18:57:36.000Z,3.1
2023-10-29T19:01:09.000Z,2.1
2023-10-29T19:04:42.000Z,2.2
2023-10-29T19:08:20.000Z,2
2023-10-29T19:11:52.000Z,2.2
2023-10-29T19:15:25.000Z,1.2
2023-10-29T19:18:58.000Z,2.1
2023-10-29T19:22:32.000Z,1.7
2023-10-29T19:26:04.000Z,1.6
2023-10-29T19:29:37.000Z,2.3
2023-10-29T19:33:25.000Z,1.8
2023-10-29T19:36:10.000Z,1.9
2023-10-29T19:39:43.000Z,2.3
2023-10-29T19:43:16.000Z,3.3
2023-10-29T19:46:49.000Z,4.1
2023-10-29T19:50:21.000Z,6.6
2023-10-29T19:53:54.000Z,2.6
2023-10-29T19:57:27.000Z,3.3
2023-10-29T20:00:59.000Z,1.6
2023-10-29T20:04:32.000Z,2
2023-10-29T20:08:05.000Z,2.1
2023-10-29T20:11:41.000Z,3.2
2023-10-29T20:14:27.000Z,2
2023-10-29T20:17:59.000Z,2.6
2023-10-29T20:21:32.000Z,1.6
2023-10-29T20:25:05.000Z,3.8
2023-10-29T20:28:38.000Z,2.6
2023-10-29T20:32:11.000Z,2.9
2023-10-29T20:35:44.000Z,3.5
2023-10-29T20:39:17.000Z,2.6
2023-10-29T20:42:50.000Z,2.3
2023-10-29T20:46:22.000Z,4.3
2023-10-29T20:49:58.000Z,5.5
2023-10-29T20:52:44.000Z,3.4
2023-10-29T20:56:16.000Z,3.5
2023-10-29T20:59:49.000Z,3.2
2023-10-29T21:03:22.000Z,3.4
2023-10-29T21:06:55.000Z,3.2
2023-10-29T21:10:28.000Z,5.4
2023-10-29T21:14:00.000Z,6.9
2023-10-29T21:17:33.000Z,5.5
2023-10-29T21:21:06.000Z,2.6
2023-10-29T21:24:39.000Z,4.5
2023-10-29T21:28:12.000Z,4.2
2023-10-29T21:30:57.000Z,4.5
2023-10-29T21:34:30.000Z,4.6
2023-10-29T21:38:02.000Z,6
2023-10-29T21:41:35.000Z,6.1
2023-10-29T21:45:08.000Z,5.3
2023-10-29T21:48:41.000Z,3.4
2023-10-29T21:52:14.000Z,4
2023-10-29T21:55:46.000Z,2.7
2023-10-29T21:59:19.000Z,12.6
2023-10-29T22:02:52.000Z,4.5
2023-10-29T22:06:25.000Z,5
2023-10-29T22:09:10.000Z,4.1
2023-10-29T22:12:43.000Z,5.6
2023-10-29T22:16:16.000Z,4
2023-10-29T22:19:49.000Z,3.1
2023-10-29T22:23:21.000Z,6.3
2023-10-29T22:26:54.000Z,5.2
2023-10-29T22:30:27.000Z,10.3
2023-10-29T22:33:59.000Z,6.7
2023-10-29T22:37:32.000Z,5.1
2023-10-29T22:41:05.000Z,7.9
2023-10-29T22:44:38.000Z,6.4
2023-10-29T22:47:24.000Z,8.6
2023-10-29T22:50:57.000Z,6.1
2023-10-29T22:54:30.000Z,6.3
2023-10-29T22:58:03.000Z,11.7
2023-10-29T23:01:36.000Z,17
2023-10-29T23:05:09.000Z,18.7
2023-10-29T23:08:43.000Z,8.2
2023-10-29T23:12:15.000Z,9.2
2023-10-29T23:15:48.000Z,8.3
2023-10-29T23:19:21.000Z,5
2023-10-29T23:22:54.000Z,5.2
2023-10-29T23:25:39.000Z,8
2023-10-29T23:29:12.000Z,8.2
2023-10-29T23:32:45.000Z,4.1
2023-10-29T23:36:18.000Z,5.8
2023-10-29T23:39:50.000Z,5.1
2023-10-29T23:43:23.000Z,5.9
2023-10-29T23:46:56.000Z,6.7
2023-10-29T23:50:29.000Z,6.4
2023-10-29T23:54:01.000Z,6.5
2023-10-29T23:57:34.000Z,4.4
